Southwest Florida International Airport

Airport
ICAO code: 
KRSW
Summary
ICAO Region: 
NAM
Territory: 
Location: 
Fort Myers, Florida,
Coordinates: 
Aerial View: 
26° 32' 10.707" N, 81° 45' 18.303" W
Metar
Observation
KRSW 021553Z 04005KT 10SM BKN032 24/14 A3017 RMK AO2 SLP214 T02440144
Station
Fort Myers, Southwest Florida International Airport
Date/Time
2021-12-02 15:53:00
Wind direction
40°
Wind speed
05 kts
Lowest cloud amount
broken clouds
Temperature
24.4°C
Dew point
14.4°C
Humidity
53%
Weather condition
n/a

Description

Southwest Florida International Airport is a public county-owned airport located in the South Fort Myers region of Lee County, Florida.

Climatology

Fort Myers stradles two climate classifications - humid “subtropical” climate (Köppen climate classification Cfa) - characterized by hot, humid summers and cool winters and tropical monsoon climate (Köppen climate classification Am) - monthly mean temperatures above 18°C in every month of the year and features wet and dry seasons. A tropical monsoon climate typically features less pronounced dry seasons than a tropical savanna climate and see less variance in temperatures during the course of the year. The driest month nearly always occurs at or soon after the "winter" solstice.

Runways

Designator Length Width Surface Rops
6/24 3658 46 ASP Yes/Yes
Airport map: 
Aerial View: 

SKYbrary Partners:

Safety knowledge contributed by: